sensor_id;sensor_type;location;lat;lon;timestamp;pressure;altitude;pressure_sealevel;temperature;humidity
4858;BME280;58975;51.978;8.472;2023-04-01T00:01:06;98283.91;;;8.36;100.00
4858;BME280;58975;51.978;8.472;2023-04-01T00:06:03;98278.28;;;8.31;100.00
4858;BME280;58975;51.978;8.472;2023-04-01T00:10:59;98276.16;;;8.34;100.00
4858;BME280;58975;51.978;8.472;2023-04-01T00:15:56;98273.63;;;8.33;100.00
4858;BME280;58975;51.978;8.472;2023-04-01T00:20:55;98264.69;;;8.34;100.00
4858;BME280;58975;51.978;8.472;2023-04-01T00:25:51;98266.66;;;8.32;100.00
4858;BME280;58975;51.978;8.472;2023-04-01T00:30:48;98259.72;;;8.31;100.00
4858;BME280;58975;51.978;8.472;2023-04-01T00:35:44;98259.56;;;8.40;100.00
4858;BME280;58975;51.978;8.472;2023-04-01T00:40:44;98250.75;;;8.32;100.00
4858;BME280;58975;51.978;8.472;2023-04-01T00:45:42;98247.13;;;8.33;100.00
4858;BME280;58975;51.978;8.472;2023-04-01T00:50:40;98239.00;;;8.34;100.00
4858;BME280;58975;51.978;8.472;2023-04-01T00:55:41;98240.16;;;8.32;100.00
4858;BME280;58975;51.978;8.472;2023-04-01T01:00:39;98219.78;;;8.32;100.00
4858;BME280;58975;51.978;8.472;2023-04-01T01:10:49;98214.81;;;8.37;100.00
4858;BME280;58975;51.978;8.472;2023-04-01T01:15:46;98201.56;;;8.37;100.00
4858;BME280;58975;51.978;8.472;2023-04-01T01:21:14;98196.25;;;8.37;100.00
4858;BME280;58975;51.978;8.472;2023-04-01T01:31:54;98187.47;;;8.37;100.00
4858;BME280;58975;51.978;8.472;2023-04-01T01:36:56;98190.13;;;8.37;100.00
4858;BME280;58975;51.978;8.472;2023-04-01T01:41:57;98182.50;;;8.42;100.00
4858;BME280;58975;51.978;8.472;2023-04-01T01:46:55;98178.03;;;8.42;100.00
4858;BME280;58975;51.978;8.472;2023-04-01T01:51:52;98179.16;;;8.40;100.00
4858;BME280;58975;51.978;8.472;2023-04-01T01:56:51;98182.50;;;8.34;100.00
4858;BME280;58975;51.978;8.472;2023-04-01T02:01:54;98188.94;;;8.31;100.00
4858;BME280;58975;51.978;8.472;2023-04-01T02:06:58;98183.06;;;8.20;100.00
4858;BME280;58975;51.978;8.472;2023-04-01T02:11:59;98184.59;;;8.22;100.00
4858;BME280;58975;51.978;8.472;2023-04-01T02:17:05;98184.59;;;8.22;100.00
4858;BME280;58975;51.978;8.472;2023-04-01T02:22:03;98188.19;;;8.13;100.00
4858;BME280;58975;51.978;8.472;2023-04-01T02:27:02;98187.69;;;8.09;100.00
4858;BME280;58975;51.978;8.472;2023-04-01T02:31:59;98187.69;;;8.09;100.00
4858;BME280;58975;51.978;8.472;2023-04-01T02:36:57;98193.19;;;8.16;100.00
4858;BME280;58975;51.978;8.472;2023-04-01T02:41:54;98197.16;;;8.20;100.00
4858;BME280;58975;51.978;8.472;2023-04-01T02:46:50;98187.72;;;8.18;100.00
4858;BME280;58975;51.978;8.472;2023-04-01T02:51:47;98190.22;;;8.19;100.00
4858;BME280;58975;51.978;8.472;2023-04-01T02:56:43;98182.75;;;8.15;100.00
4858;BME280;58975;51.978;8.472;2023-04-01T03:01:39;98190.03;;;8.21;100.00
4858;BME280;58975;51.978;8.472;2023-04-01T03:06:36;98187.03;;;8.16;100.00
4858;BME280;58975;51.978;8.472;2023-04-01T03:11:33;98187.72;;;8.18;100.00
4858;BME280;58975;51.978;8.472;2023-04-01T03:16:29;98188.38;;;8.20;100.00
4858;BME280;58975;51.978;8.472;2023-04-01T03:21:25;98191.53;;;8.15;100.00
4858;BME280;58975;51.978;8.472;2023-04-01T03:26:22;98192.34;;;8.16;100.00
4858;BME280;58975;51.978;8.472;2023-04-01T03:31:19;98196.50;;;8.18;100.00
4858;BME280;58975;51.978;8.472;2023-04-01T03:36:19;98187.06;;;8.24;100.00
4858;BME280;58975;51.978;8.472;2023-04-01T03:41:16;98198.69;;;8.23;100.00
4858;BME280;58975;51.978;8.472;2023-04-01T03:46:20;98194.50;;;8.20;100.00
4858;BME280;58975;51.978;8.472;2023-04-01T03:51:16;98202.66;;;8.19;100.00
4858;BME280;58975;51.978;8.472;2023-04-01T03:56:13;98209.91;;;8.17;100.00
4858;BME280;58975;51.978;8.472;2023-04-01T04:01:20;98203.47;;;8.19;100.00
4858;BME280;58975;51.978;8.472;2023-04-01T04:06:18;98198.31;;;8.18;100.00
4858;BME280;58975;51.978;8.472;2023-04-01T04:11:16;98195.31;;;8.13;100.00
4858;BME280;58975;51.978;8.472;2023-04-01T04:16:13;98198.19;;;8.19;100.00
4858;BME280;58975;51.978;8.472;2023-04-01T04:21:13;98199.31;;;8.17;100.00
4858;BME280;58975;51.978;8.472;2023-04-01T04:26:12;98208.75;;;8.11;100.00
4858;BME280;58975;51.978;8.472;2023-04-01T04:31:09;98213.38;;;8.09;100.00
4858;BME280;58975;51.978;8.472;2023-04-01T04:36:06;98215.38;;;8.07;100.00
4858;BME280;58975;51.978;8.472;2023-04-01T04:41:02;98214.19;;;8.01;100.00
4858;BME280;58975;51.978;8.472;2023-04-01T04:45:59;98229.94;;;8.03;100.00
4858;BME280;58975;51.978;8.472;2023-04-01T04:50:55;98231.91;;;8.01;100.00
4858;BME280;58975;51.978;8.472;2023-04-01T04:55:52;98233.41;;;8.03;100.00
4858;BME280;58975;51.978;8.472;2023-04-01T05:00:49;98235.72;;;7.98;100.00
4858;BME280;58975;51.978;8.472;2023-04-01T05:05:51;98243.34;;;8.01;100.00
4858;BME280;58975;51.978;8.472;2023-04-01T05:10:47;98247.28;;;7.97;100.00
4858;BME280;58975;51.978;8.472;2023-04-01T05:15:44;98251.75;;;7.97;100.00
4858;BME280;58975;51.978;8.472;2023-04-01T05:20:46;98252.75;;;7.96;100.00
4858;BME280;58975;51.978;8.472;2023-04-01T05:25:43;98259.88;;;7.95;100.00
4858;BME280;58975;51.978;8.472;2023-04-01T05:30:42;98262.69;;;7.94;100.00
4858;BME280;58975;51.978;8.472;2023-04-01T05:35:39;98266.31;;;7.93;100.00
4858;BME280;58975;51.978;8.472;2023-04-01T05:40:36;98275.09;;;7.93;100.00
4858;BME280;58975;51.978;8.472;2023-04-01T05:45:32;98270.50;;;7.95;100.00
4858;BME280;58975;51.978;8.472;2023-04-01T05:50:29;98267.34;;;7.92;100.00
4858;BME280;58975;51.978;8.472;2023-04-01T05:55:25;98275.78;;;7.95;100.00
4858;BME280;58975;51.978;8.472;2023-04-01T06:00:22;98266.72;;;8.06;100.00
4858;BME280;58975;51.978;8.472;2023-04-01T06:05:22;98277.03;;;8.17;100.00
4858;BME280;58975;51.978;8.472;2023-04-01T06:10:20;98266.38;;;8.35;100.00
4858;BME280;58975;51.978;8.472;2023-04-01T06:15:25;98280.81;;;8.48;100.00
4858;BME280;58975;51.978;8.472;2023-04-01T06:20:31;98275.91;;;8.70;100.00
4858;BME280;58975;51.978;8.472;2023-04-01T06:26:05;98277.53;;;8.71;100.00
4858;BME280;58975;51.978;8.472;2023-04-01T06:36:25;98274.31;;;8.43;100.00
4858;BME280;58975;51.978;8.472;2023-04-01T06:47:03;98293.31;;;8.22;100.00
4858;BME280;58975;51.978;8.472;2023-04-01T06:52:16;98295.59;;;8.17;100.00
4858;BME280;58975;51.978;8.472;2023-04-01T06:57:22;98298.75;;;8.21;100.00
4858;BME280;58975;51.978;8.472;2023-04-01T07:02:30;98305.34;;;8.17;100.00
4858;BME280;58975;51.978;8.472;2023-04-01T07:07:46;98302.72;;;8.17;100.00
4858;BME280;58975;51.978;8.472;2023-04-01T07:12:49;98311.94;;;8.30;100.00
4858;BME280;58975;51.978;8.472;2023-04-01T07:17:53;98309.94;;;8.32;100.00
4858;BME280;58975;51.978;8.472;2023-04-01T07:22:53;98321.88;;;8.36;100.00
4858;BME280;58975;51.978;8.472;2023-04-01T07:27:53;98327.69;;;8.40;100.00
4858;BME280;58975;51.978;8.472;2023-04-01T07:33:06;98332.06;;;8.49;100.00
4858;BME280;58975;51.978;8.472;2023-04-01T07:38:17;98331.75;;;8.60;100.00
4858;BME280;58975;51.978;8.472;2023-04-01T07:43:54;98338.03;;;8.59;100.00
4858;BME280;58975;51.978;8.472;2023-04-01T07:54:15;98348.41;;;8.86;100.00
4858;BME280;58975;51.978;8.472;2023-04-01T07:59:22;98347.78;;;9.00;100.00
4858;BME280;58975;51.978;8.472;2023-04-01T08:04:23;98348.13;;;9.06;100.00
4858;BME280;58975;51.978;8.472;2023-04-01T08:10:19;98356.78;;;9.16;100.00
4858;BME280;58975;51.978;8.472;2023-04-01T08:15:23;98353.28;;;9.23;100.00
4858;BME280;58975;51.978;8.472;2023-04-01T08:20:34;98362.59;;;9.27;100.00
4858;BME280;58975;51.978;8.472;2023-04-01T08:25:33;98367.91;;;9.35;100.00
4858;BME280;58975;51.978;8.472;2023-04-01T08:30:36;98367.09;;;9.51;100.00
4858;BME280;58975;51.978;8.472;2023-04-01T08:35:40;98369.25;;;9.80;100.00
4858;BME280;58975;51.978;8.472;2023-04-01T08:40:57;98363.59;;;9.83;100.00
4858;BME280;58975;51.978;8.472;2023-04-01T08:46:16;98365.41;;;9.90;100.00
4858;BME280;58975;51.978;8.472;2023-04-01T08:56:59;98363.38;;;10.25;100.00
4858;BME280;58975;51.978;8.472;2023-04-01T09:07:50;98355.28;;;10.57;100.00
4858;BME280;58975;51.978;8.472;2023-04-01T09:18:20;98348.22;;;10.72;100.00
4858;BME280;58975;51.978;8.472;2023-04-01T09:23:32;98358.06;;;10.64;100.00
4858;BME280;58975;51.978;8.472;2023-04-01T09:39:32;98385.31;;;10.27;100.00
4858;BME280;58975;51.978;8.472;2023-04-01T09:44:35;98391.63;;;10.34;100.00
4858;BME280;58975;51.978;8.472;2023-04-01T09:55:00;98404.63;;;10.68;100.00
4858;BME280;58975;51.978;8.472;2023-04-01T10:00:25;98392.47;;;10.73;100.00
4858;BME280;58975;51.978;8.472;2023-04-01T10:16:03;98397.16;;;11.78;100.00
4858;BME280;58975;51.978;8.472;2023-04-01T10:21:18;98391.50;;;11.51;100.00
4858;BME280;58975;51.978;8.472;2023-04-01T11:14:35;98428.19;;;11.18;100.00
4858;BME280;58975;51.978;8.472;2023-04-01T11:30:28;98448.59;;;11.03;100.00
4858;BME280;58975;51.978;8.472;2023-04-01T11:46:24;98460.38;;;11.39;100.00
4858;BME280;58975;51.978;8.472;2023-04-01T11:51:49;98466.88;;;11.45;100.00
4858;BME280;58975;51.978;8.472;2023-04-01T12:02:47;98470.41;;;11.91;100.00
4858;BME280;58975;51.978;8.472;2023-04-01T12:08:06;98477.81;;;12.03;100.00
4858;BME280;58975;51.978;8.472;2023-04-01T12:13:11;98480.72;;;11.94;100.00
4858;BME280;58975;51.978;8.472;2023-04-01T12:23:58;98490.97;;;11.51;100.00
4858;BME280;58975;51.978;8.472;2023-04-01T12:29:08;98496.25;;;11.28;100.00
4858;BME280;58975;51.978;8.472;2023-04-01T13:11:20;98542.47;;;11.05;100.00
4858;BME280;58975;51.978;8.472;2023-04-01T13:16:31;98558.75;;;11.10;100.00
4858;BME280;58975;51.978;8.472;2023-04-01T13:32:18;98559.84;;;11.39;100.00
4858;BME280;58975;51.978;8.472;2023-04-01T13:43:25;98583.44;;;11.51;100.00
4858;BME280;58975;51.978;8.472;2023-04-01T14:21:19;98605.03;;;11.25;100.00
4858;BME280;58975;51.978;8.472;2023-04-01T14:31:48;98620.84;;;11.18;100.00
4858;BME280;58975;51.978;8.472;2023-04-01T14:42:28;98632.38;;;10.86;100.00
4858;BME280;58975;51.978;8.472;2023-04-01T14:47:43;98634.75;;;10.65;100.00
4858;BME280;58975;51.978;8.472;2023-04-01T14:52:46;98646.72;;;10.53;100.00
4858;BME280;58975;51.978;8.472;2023-04-01T14:58:19;98659.84;;;10.55;100.00
4858;BME280;58975;51.978;8.472;2023-04-01T15:03:25;98676.66;;;10.71;100.00
4858;BME280;58975;51.978;8.472;2023-04-01T15:14:16;98689.63;;;10.99;100.00
4858;BME280;58975;51.978;8.472;2023-04-01T15:29:56;98709.78;;;10.69;100.00
4858;BME280;58975;51.978;8.472;2023-04-01T15:35:51;98714.28;;;10.10;100.00
4858;BME280;58975;51.978;8.472;2023-04-01T15:51:48;98758.00;;;10.50;100.00
4858;BME280;58975;51.978;8.472;2023-04-01T15:57:16;98772.44;;;10.47;100.00
4858;BME280;58975;51.978;8.472;2023-04-01T16:02:24;98783.06;;;10.39;100.00
4858;BME280;58975;51.978;8.472;2023-04-01T16:07:59;98794.69;;;10.30;100.00
4858;BME280;58975;51.978;8.472;2023-04-01T16:18:32;98808.00;;;10.30;100.00
4858;BME280;58975;51.978;8.472;2023-04-01T16:28:40;98829.66;;;10.35;100.00
4858;BME280;58975;51.978;8.472;2023-04-01T16:33:49;98833.75;;;10.29;100.00
4858;BME280;58975;51.978;8.472;2023-04-01T16:39:00;98840.75;;;10.05;100.00
4858;BME280;58975;51.978;8.472;2023-04-01T16:44:10;98843.72;;;10.02;100.00
4858;BME280;58975;51.978;8.472;2023-04-01T17:04:36;98896.22;;;9.74;100.00
4858;BME280;58975;51.978;8.472;2023-04-01T17:09:51;98909.44;;;9.66;100.00
4858;BME280;58975;51.978;8.472;2023-04-01T17:20:26;98941.06;;;9.51;100.00
4858;BME280;58975;51.978;8.472;2023-04-01T17:31:02;98956.59;;;9.46;100.00
4858;BME280;58975;51.978;8.472;2023-04-01T17:36:18;98984.47;;;9.42;100.00
4858;BME280;58975;51.978;8.472;2023-04-01T17:47:16;99013.31;;;9.37;100.00
4858;BME280;58975;51.978;8.472;2023-04-01T17:52:39;99022.47;;;8.97;100.00
4858;BME280;58975;51.978;8.472;2023-04-01T17:57:52;99027.06;;;8.68;100.00
4858;BME280;58975;51.978;8.472;2023-04-01T18:03:00;99042.56;;;8.63;100.00
4858;BME280;58975;51.978;8.472;2023-04-01T18:13:19;99068.28;;;8.53;100.00
4858;BME280;58975;51.978;8.472;2023-04-01T18:18:42;99080.34;;;8.38;100.00
4858;BME280;58975;51.978;8.472;2023-04-01T18:23:49;99094.44;;;8.29;100.00
4858;BME280;58975;51.978;8.472;2023-04-01T18:29:04;99096.63;;;8.14;100.00
4858;BME280;58975;51.978;8.472;2023-04-01T18:34:36;99121.88;;;8.08;100.00
4858;BME280;58975;51.978;8.472;2023-04-01T18:39:46;99129.28;;;8.05;100.00
4858;BME280;58975;51.978;8.472;2023-04-01T18:49:52;99159.13;;;7.97;100.00
4858;BME280;58975;51.978;8.472;2023-04-01T19:00:28;99183.06;;;7.77;100.00
4858;BME280;58975;51.978;8.472;2023-04-01T19:05:40;99195.34;;;7.68;100.00
4858;BME280;58975;51.978;8.472;2023-04-01T19:10:53;99204.38;;;7.56;100.00
4858;BME280;58975;51.978;8.472;2023-04-01T19:16:17;99211.28;;;7.47;100.00
4858;BME280;58975;51.978;8.472;2023-04-01T19:21:31;99238.72;;;7.37;100.00
4858;BME280;58975;51.978;8.472;2023-04-01T19:37:21;99269.50;;;6.96;100.00
4858;BME280;58975;51.978;8.472;2023-04-01T19:42:34;99286.50;;;6.94;100.00
4858;BME280;58975;51.978;8.472;2023-04-01T19:47:50;99303.97;;;6.85;100.00
4858;BME280;58975;51.978;8.472;2023-04-01T19:52:56;99308.59;;;6.72;100.00
4858;BME280;58975;51.978;8.472;2023-04-01T20:14:16;99349.53;;;6.46;100.00
4858;BME280;58975;51.978;8.472;2023-04-01T20:19:35;99357.47;;;6.46;100.00
4858;BME280;58975;51.978;8.472;2023-04-01T20:24:36;99373.84;;;6.17;100.00
4858;BME280;58975;51.978;8.472;2023-04-01T20:56:10;99422.88;;;5.99;100.00
4858;BME280;58975;51.978;8.472;2023-04-01T21:01:27;99424.50;;;5.89;100.00
4858;BME280;58975;51.978;8.472;2023-04-01T21:06:36;99424.81;;;5.85;100.00
4858;BME280;58975;51.978;8.472;2023-04-01T21:17:25;99445.59;;;5.78;100.00
4858;BME280;58975;51.978;8.472;2023-04-01T21:33:08;99483.00;;;5.61;100.00
4858;BME280;58975;51.978;8.472;2023-04-01T21:43:40;99497.34;;;5.46;100.00
4858;BME280;58975;51.978;8.472;2023-04-01T21:49:16;99499.94;;;5.35;100.00
4858;BME280;58975;51.978;8.472;2023-04-01T22:10:14;99564.44;;;4.94;100.00
4858;BME280;58975;51.978;8.472;2023-04-01T22:16:08;99579.03;;;4.87;100.00
4858;BME280;58975;51.978;8.472;2023-04-01T22:21:12;99584.53;;;4.84;100.00
4858;BME280;58975;51.978;8.472;2023-04-01T22:26:28;99593.28;;;4.85;100.00
4858;BME280;58975;51.978;8.472;2023-04-01T22:52:46;99627.97;;;4.41;100.00
4858;BME280;58975;51.978;8.472;2023-04-01T22:57:53;99640.41;;;4.39;100.00
4858;BME280;58975;51.978;8.472;2023-04-01T23:08:26;99643.44;;;4.33;100.00
4858;BME280;58975;51.978;8.472;2023-04-01T23:13:49;99657.38;;;4.35;100.00
4858;BME280;58975;51.978;8.472;2023-04-01T23:19:06;99668.97;;;4.32;100.00
4858;BME280;58975;51.978;8.472;2023-04-01T23:24:25;99682.59;;;4.39;100.00
4858;BME280;58975;51.978;8.472;2023-04-01T23:29:24;99684.69;;;4.34;100.00
4858;BME280;58975;51.978;8.472;2023-04-01T23:34:32;99686.56;;;4.32;100.00
4858;BME280;58975;51.978;8.472;2023-04-01T23:39:35;99693.84;;;4.28;100.00
4858;BME280;58975;51.978;8.472;2023-04-01T23:44:33;99712.06;;;4.18;100.00
4858;BME280;58975;51.978;8.472;2023-04-01T23:49:41;99717.53;;;4.15;100.00
4858;BME280;58975;51.978;8.472;2023-04-01T23:54:44;99727.22;;;4.15;100.00
